Time;durP1;ratioP1;P1;durP2;ratioP2;P2;SDS_P1;SDS_P2;PMS_P1;PMS_P2;Temp;Humidity;BMP_temperature;BMP_pressure;BME280_temperature;BME280_humidity;BME280_pressure;Samples;Min_cycle;Max_cycle;Signal;HPM_P1;HPM_P2
2022/07/27 00:02:02;;;;;;;1.90;1.33;;;15.50;99.80;;;;;;5107974;28;20383;-33
2022/07/27 00:04:28;;;;;;;1.88;1.40;;;15.50;99.80;;;;;;5107010;28;20502;-34
2022/07/27 00:06:54;;;;;;;3.83;1.80;;;15.50;99.90;;;;;;5106761;28;20040;-35
2022/07/27 00:09:19;;;;;;;3.53;1.58;;;15.50;99.90;;;;;;5106782;28;20046;-35
2022/07/27 00:11:45;;;;;;;3.45;1.50;;;15.40;99.90;;;;;;5107281;28;20041;-35
2022/07/27 00:14:11;;;;;;;3.92;1.30;;;15.40;99.90;;;;;;5106280;28;20132;-34
2022/07/27 00:16:37;;;;;;;3.13;1.33;;;15.40;99.90;;;;;;5106390;28;20065;-34
2022/07/27 00:19:03;;;;;;;1.88;1.30;;;15.30;99.90;;;;;;5106767;28;20096;-35
2022/07/27 00:21:28;;;;;;;2.83;1.40;;;15.30;99.90;;;;;;5106210;28;20145;-35
2022/07/27 00:23:54;;;;;;;3.60;1.27;;;15.30;99.90;;;;;;5106506;28;20106;-35
2022/07/27 00:26:20;;;;;;;3.45;1.52;;;15.30;99.90;;;;;;5106037;28;20052;-34
2022/07/27 00:28:45;;;;;;;3.50;1.52;;;15.30;99.90;;;;;;5107108;28;20511;-34
2022/07/27 00:31:11;;;;;;;1.70;1.10;;;15.20;99.90;;;;;;5106503;28;20035;-34
2022/07/27 00:33:36;;;;;;;2.70;1.30;;;15.20;99.90;;;;;;5105381;28;20020;-34
2022/07/27 00:36:02;;;;;;;4.05;1.30;;;15.20;99.90;;;;;;5106418;28;20139;-34
2022/07/27 00:38:28;;;;;;;1.67;1.20;;;15.20;99.90;;;;;;5106109;28;20016;-35
2022/07/27 00:40:53;;;;;;;4.50;1.55;;;15.10;99.90;;;;;;5105070;28;20472;-34
2022/07/27 00:43:19;;;;;;;1.98;1.23;;;15.10;99.90;;;;;;5105777;28;20034;-34
2022/07/27 00:45:45;;;;;;;1.63;1.40;;;15.10;99.90;;;;;;5105817;28;20193;-34
2022/07/27 00:48:10;;;;;;;1.90;1.20;;;14.90;99.90;;;;;;5106139;28;20110;-34
2022/07/27 00:50:37;;;;;;;3.15;1.30;;;15.00;99.90;;;;;;5105514;28;20024;-35
2022/07/27 00:53:03;;;;;;;3.35;1.30;;;14.90;99.90;;;;;;5106308;28;20435;-34
2022/07/27 00:55:31;;;;;;;2.15;1.50;;;14.90;99.90;;;;;;5104624;28;20518;-33
2022/07/27 00:57:57;;;;;;;1.40;1.20;;;14.80;99.90;;;;;;5106440;28;20074;-34
2022/07/27 01:00:23;;;;;;;2.08;1.15;;;14.80;99.90;;;;;;5105803;28;20052;-34
2022/07/27 01:02:48;;;;;;;3.90;1.30;;;14.80;99.90;;;;;;5104838;28;20083;-33
2022/07/27 01:05:14;;;;;;;6.05;1.40;;;14.70;99.90;;;;;;5106082;28;20036;-34
2022/07/27 01:07:41;;;;;;;3.95;1.35;;;14.70;99.90;;;;;;5105133;28;20038;-34
2022/07/27 01:10:07;;;;;;;2.92;1.40;;;14.70;99.90;;;;;;5105065;28;20018;-34
2022/07/27 01:12:32;;;;;;;4.45;1.50;;;14.60;99.90;;;;;;5105479;28;20031;-33
2022/07/27 01:14:59;;;;;;;3.15;1.67;;;14.60;99.90;;;;;;5106388;28;20043;-34
2022/07/27 01:17:26;;;;;;;5.57;1.65;;;14.60;99.90;;;;;;5105228;28;20023;-34
2022/07/27 01:19:52;;;;;;;3.25;1.40;;;14.50;99.90;;;;;;5105846;28;20110;-34
2022/07/27 01:22:17;;;;;;;4.30;1.73;;;14.50;99.90;;;;;;5105592;28;20530;-34
2022/07/27 01:24:43;;;;;;;4.85;1.63;;;14.50;99.90;;;;;;5104675;28;20039;-35
2022/07/27 01:27:09;;;;;;;3.95;1.58;;;14.50;99.90;;;;;;5105828;28;20032;-34
2022/07/27 01:29:35;;;;;;;3.72;1.48;;;14.50;99.90;;;;;;5104844;28;20031;-34
2022/07/27 01:32:01;;;;;;;4.43;1.50;;;14.50;99.90;;;;;;5105638;28;20031;-35
2022/07/27 01:34:27;;;;;;;3.63;1.48;;;14.50;99.90;;;;;;5105530;28;20027;-34
2022/07/27 01:36:53;;;;;;;4.05;1.70;;;14.50;99.90;;;;;;5104933;28;20027;-34
2022/07/27 01:39:18;;;;;;;4.80;1.80;;;14.50;99.90;;;;;;5105612;28;20453;-34
2022/07/27 01:41:45;;;;;;;2.50;1.30;;;14.50;99.90;;;;;;5105771;28;20036;-34
2022/07/27 01:44:12;;;;;;;2.13;1.30;;;14.50;99.90;;;;;;5104731;28;20033;-34
2022/07/27 01:46:37;;;;;;;3.22;1.10;;;14.50;99.90;;;;;;5104383;28;20043;-35
2022/07/27 01:49:03;;;;;;;3.08;2.03;;;14.50;99.90;;;;;;5105562;28;20031;-34
2022/07/27 01:51:29;;;;;;;4.80;1.38;;;14.50;99.90;;;;;;5103355;28;20028;-35
2022/07/27 01:53:54;;;;;;;3.25;1.40;;;14.50;99.90;;;;;;5104176;28;20024;-34
2022/07/27 01:56:20;;;;;;;4.32;1.30;;;14.50;99.90;;;;;;5104811;28;20016;-34
2022/07/27 01:58:45;;;;;;;2.47;1.30;;;14.50;99.90;;;;;;5104127;28;20038;-34
2022/07/27 02:01:11;;;;;;;2.40;1.33;;;14.40;99.90;;;;;;5104963;28;20068;-36
2022/07/27 02:03:37;;;;;;;3.33;1.20;;;14.40;99.90;;;;;;5104610;28;20028;-34
2022/07/27 02:06:03;;;;;;;1.48;1.10;;;14.40;99.90;;;;;;5105070;28;20027;-34
2022/07/27 02:08:29;;;;;;;2.50;1.08;;;14.40;99.90;;;;;;5104048;28;20028;-34
2022/07/27 02:13:46;;;;;;;3.67;1.30;;;14.40;99.90;;;;;;5104360;28;20085;-34
2022/07/27 02:16:12;;;;;;;2.60;1.15;;;14.30;99.90;;;;;;5105336;28;20527;-35
2022/07/27 02:18:38;;;;;;;2.10;1.10;;;14.30;99.90;;;;;;5103963;28;20027;-34
2022/07/27 02:21:05;;;;;;;2.38;1.10;;;14.30;99.90;;;;;;5104728;28;20403;-34
2022/07/27 02:23:31;;;;;;;3.67;1.50;;;14.20;99.90;;;;;;5103987;28;20035;-36
2022/07/27 02:25:57;;;;;;;2.90;1.30;;;14.20;99.90;;;;;;5104453;28;20480;-35
2022/07/27 02:28:23;;;;;;;3.08;1.20;;;14.20;99.90;;;;;;5104821;28;20121;-34
2022/07/27 02:30:48;;;;;;;2.88;1.20;;;14.20;99.90;;;;;;5104925;28;20513;-35
2022/07/27 02:33:14;;;;;;;5.63;1.67;;;14.20;99.90;;;;;;5103588;28;20019;-34
2022/07/27 02:35:39;;;;;;;5.00;1.50;;;14.20;99.90;;;;;;5104377;28;20475;-33
2022/07/27 02:38:05;;;;;;;3.38;1.52;;;14.20;99.90;;;;;;5104852;28;20029;-34
2022/07/27 02:40:30;;;;;;;2.60;1.23;;;14.10;99.90;;;;;;5103515;28;20414;-34
2022/07/27 02:42:56;;;;;;;2.30;1.25;;;14.10;99.90;;;;;;5104575;28;20539;-34
2022/07/27 02:45:21;;;;;;;1.63;1.40;;;14.10;99.90;;;;;;5104563;28;20031;-35
2022/07/27 02:47:47;;;;;;;4.18;1.35;;;14.10;99.90;;;;;;5103265;28;20055;-35
2022/07/27 02:50:12;;;;;;;3.97;1.35;;;14.10;99.90;;;;;;5104176;28;20050;-35
2022/07/27 02:52:38;;;;;;;5.45;1.50;;;14.10;99.90;;;;;;5103924;28;20023;-35
2022/07/27 02:55:05;;;;;;;2.60;1.40;;;14.10;99.90;;;;;;5104177;28;20221;-34
2022/07/27 02:57:33;;;;;;;4.07;1.58;;;14.10;99.90;;;;;;5104189;28;20038;-35
2022/07/27 02:59:59;;;;;;;2.45;1.48;;;14.00;99.90;;;;;;5104543;28;20015;-34
2022/07/27 03:02:24;;;;;;;3.33;1.88;;;14.10;99.90;;;;;;5103975;28;20118;-33
2022/07/27 03:04:50;;;;;;;4.18;2.47;;;14.00;99.90;;;;;;5106216;28;20582;-34
2022/07/27 03:07:15;;;;;;;2.80;1.30;;;14.00;99.90;;;;;;5101371;28;20039;-34
2022/07/27 03:09:41;;;;;;;2.80;1.33;;;14.00;99.90;;;;;;5098199;28;20020;-33
2022/07/27 03:12:07;;;;;;;3.47;1.75;;;14.00;99.90;;;;;;5108276;28;20332;-33
2022/07/27 03:14:32;;;;;;;5.47;1.75;;;14.00;99.90;;;;;;5107430;28;20539;-36
2022/07/27 03:16:58;;;;;;;2.63;1.45;;;14.00;99.90;;;;;;5107358;28;20020;-34
2022/07/27 03:19:23;;;;;;;1.75;1.50;;;14.00;99.90;;;;;;5107838;28;20026;-34
2022/07/27 03:21:49;;;;;;;5.60;1.80;;;14.00;99.90;;;;;;5107782;28;20487;-35
2022/07/27 03:24:14;;;;;;;4.28;1.85;;;14.00;99.90;;;;;;5107143;28;20570;-34
2022/07/27 03:26:40;;;;;;;2.75;1.80;;;13.90;99.90;;;;;;5106995;28;20062;-34
2022/07/27 03:29:05;;;;;;;3.60;1.80;;;13.90;99.90;;;;;;5106941;28;20026;-34
2022/07/27 03:31:31;;;;;;;3.72;1.88;;;13.90;99.90;;;;;;5107567;28;20477;-34
2022/07/27 03:33:56;;;;;;;3.28;1.65;;;13.90;99.90;;;;;;5107303;28;20539;-33
2022/07/27 03:36:22;;;;;;;3.70;1.42;;;13.80;99.90;;;;;;5105884;28;20047;-34
2022/07/27 03:38:47;;;;;;;1.73;1.30;;;13.80;99.90;;;;;;5107477;28;20474;-33
2022/07/27 03:41:13;;;;;;;5.15;1.80;;;13.80;99.90;;;;;;5107472;28;20376;-34
2022/07/27 03:43:39;;;;;;;5.32;1.55;;;13.80;99.90;;;;;;5106278;28;20031;-33
2022/07/27 03:46:04;;;;;;;2.22;1.20;;;13.80;99.90;;;;;;5106997;28;20395;-35
2022/07/27 03:48:30;;;;;;;2.92;1.75;;;13.80;99.90;;;;;;5106516;28;20024;-33
2022/07/27 03:50:55;;;;;;;10.68;2.70;;;13.80;99.90;;;;;;5106303;28;20015;-35
2022/07/27 03:53:21;;;;;;;3.80;1.75;;;13.70;99.90;;;;;;5107297;28;20387;-34
2022/07/27 03:55:48;;;;;;;3.17;1.35;;;13.70;99.90;;;;;;5106632;28;20035;-33
2022/07/27 03:58:13;;;;;;;2.80;1.50;;;13.70;99.90;;;;;;5106156;28;20024;-33
2022/07/27 04:00:39;;;;;;;4.35;1.70;;;13.70;99.90;;;;;;5107161;28;20035;-34
2022/07/27 04:03:05;;;;;;;3.38;1.75;;;13.70;99.90;;;;;;5106507;28;20052;-34
2022/07/27 04:05:30;;;;;;;3.03;1.70;;;13.70;99.90;;;;;;5105405;28;20379;-33
2022/07/27 04:07:56;;;;;;;2.83;1.52;;;13.70;99.90;;;;;;5107340;28;20058;-34
2022/07/27 04:10:23;;;;;;;3.70;1.77;;;13.60;99.90;;;;;;5106558;28;20455;-34
2022/07/27 04:12:48;;;;;;;1.90;1.30;;;13.70;99.90;;;;;;5105561;28;20041;-34
2022/07/27 04:15:17;;;;;;;2.28;1.75;;;13.70;99.90;;;;;;5106223;28;20621;-37
2022/07/27 04:17:44;;;;;;;2.70;1.20;;;13.70;99.90;;;;;;5106250;28;20051;-35
2022/07/27 04:20:10;;;;;;;4.05;1.40;;;13.80;99.90;;;;;;5106544;28;20031;-36
2022/07/27 04:22:36;;;;;;;3.08;1.40;;;13.80;99.90;;;;;;5106157;28;20122;-35
2022/07/27 04:25:02;;;;;;;1.27;1.00;;;13.80;99.90;;;;;;5106919;28;20123;-37
2022/07/27 04:27:27;;;;;;;2.28;1.08;;;13.80;99.90;;;;;;5105486;28;20031;-35
2022/07/27 04:29:53;;;;;;;1.40;0.93;;;13.80;99.90;;;;;;5106987;28;20406;-34
2022/07/27 04:32:18;;;;;;;3.05;1.40;;;13.80;99.90;;;;;;5105444;28;20028;-33
2022/07/27 04:34:44;;;;;;;2.20;0.98;;;13.80;99.90;;;;;;5105601;28;20096;-34
2022/07/27 04:37:09;;;;;;;2.35;1.00;;;13.80;99.90;;;;;;5106657;28;20039;-33
2022/07/27 04:39:35;;;;;;;1.67;0.90;;;13.90;99.90;;;;;;5105394;28;20027;-34
2022/07/27 04:42:00;;;;;;;2.35;1.08;;;13.90;99.90;;;;;;5106508;28;20396;-35
2022/07/27 04:44:26;;;;;;;1.83;0.88;;;14.00;99.90;;;;;;5106406;28;20020;-34
2022/07/27 04:46:51;;;;;;;1.42;0.82;;;14.10;99.90;;;;;;5105157;28;20039;-34
2022/07/27 04:49:17;;;;;;;2.78;0.73;;;14.10;99.90;;;;;;5106329;28;20023;-34
2022/07/27 04:51:43;;;;;;;1.83;0.77;;;14.20;99.90;;;;;;5106026;28;20097;-33
2022/07/27 04:54:10;;;;;;;1.02;0.73;;;14.30;99.90;;;;;;5105077;28;20016;-34
2022/07/27 04:56:36;;;;;;;1.88;1.00;;;14.30;99.90;;;;;;5105655;28;20239;-35
2022/07/27 04:59:01;;;;;;;2.05;0.90;;;14.30;99.90;;;;;;5105545;28;20108;-34
2022/07/27 05:01:27;;;;;;;1.58;1.00;;;14.30;99.90;;;;;;5104759;28;20091;-34
2022/07/27 05:03:52;;;;;;;1.55;0.90;;;14.30;99.90;;;;;;5105441;28;20040;-34
2022/07/27 05:06:18;;;;;;;1.70;0.90;;;14.30;99.90;;;;;;5106063;28;20050;-34
2022/07/27 05:08:44;;;;;;;2.55;1.10;;;14.30;99.90;;;;;;5104820;28;20114;-34
2022/07/27 05:11:09;;;;;;;1.77;0.82;;;14.40;99.90;;;;;;5105335;28;20022;-33
2022/07/27 05:13:39;;;;;;;1.55;1.15;;;14.50;99.90;;;;;;5105218;28;20479;-34
2022/07/27 05:16:08;;;;;;;2.55;1.30;;;14.50;99.90;;;;;;5105020;28;20023;-34
2022/07/27 05:18:33;;;;;;;2.90;1.40;;;14.50;99.90;;;;;;5105179;28;20100;-35
2022/07/27 05:20:59;;;;;;;2.55;1.20;;;14.50;99.90;;;;;;5105799;28;20035;-36
2022/07/27 05:23:24;;;;;;;1.55;1.38;;;14.50;99.90;;;;;;5103818;28;20020;-34
2022/07/27 05:25:50;;;;;;;3.78;1.17;;;14.50;99.90;;;;;;5105065;28;20384;-33
2022/07/27 05:28:16;;;;;;;4.13;1.40;;;14.50;99.90;;;;;;5105305;28;20038;-34
2022/07/27 05:30:41;;;;;;;1.88;1.20;;;14.60;99.90;;;;;;5104415;28;20039;-34
2022/07/27 05:33:07;;;;;;;3.47;1.40;;;14.60;99.90;;;;;;5106007;28;20761;-34
2022/07/27 05:35:32;;;;;;;2.55;1.38;;;14.60;99.90;;;;;;5103823;28;20479;-34
2022/07/27 05:37:58;;;;;;;1.80;1.40;;;14.70;99.90;;;;;;5105105;28;20137;-35
2022/07/27 05:40:25;;;;;;;3.30;1.13;;;14.70;99.90;;;;;;5104723;28;20024;-34
2022/07/27 05:42:50;;;;;;;2.63;1.23;;;14.80;99.90;;;;;;5104525;28;20562;-35
2022/07/27 05:45:16;;;;;;;3.42;1.30;;;14.80;99.90;;;;;;5104824;28;20030;-35
2022/07/27 05:47:41;;;;;;;3.00;1.25;;;14.80;99.90;;;;;;5104642;28;20039;-34
2022/07/27 05:50:07;;;;;;;2.00;1.40;;;14.90;99.90;;;;;;5104434;28;20015;-35
2022/07/27 05:52:33;;;;;;;2.67;1.40;;;14.90;99.90;;;;;;5104480;28;20628;-35
2022/07/27 05:54:59;;;;;;;1.25;1.10;;;15.00;99.90;;;;;;5105217;28;20016;-43
2022/07/27 05:57:24;;;;;;;2.63;1.45;;;15.10;99.90;;;;;;5103810;28;20391;-34
2022/07/27 05:59:53;;;;;;;1.13;1.02;;;15.20;99.90;;;;;;5104494;28;20023;-34
2022/07/27 06:02:19;;;;;;;2.03;1.30;;;15.30;99.90;;;;;;5105185;28;20103;-34
2022/07/27 06:04:44;;;;;;;1.85;1.05;;;15.30;99.90;;;;;;5104233;28;20166;-33
2022/07/27 06:09:54;;;;;;;2.30;1.00;;;15.50;99.90;;;;;;5105578;28;20035;-34
2022/07/27 06:12:20;;;;;;;1.65;1.10;;;15.60;99.90;;;;;;5104095;28;20019;-34
2022/07/27 06:14:45;;;;;;;2.15;1.17;;;15.60;99.90;;;;;;5104572;28;20108;-35
2022/07/27 06:17:11;;;;;;;3.28;1.05;;;15.70;99.90;;;;;;5105537;28;20023;-35
2022/07/27 06:19:38;;;;;;;1.80;0.98;;;15.80;99.90;;;;;;5103897;28;20621;-35
2022/07/27 06:22:05;;;;;;;2.25;1.00;;;15.90;99.90;;;;;;5105001;28;20063;-33
2022/07/27 06:24:31;;;;;;;1.52;0.98;;;16.00;99.90;;;;;;5104414;28;20095;-34
2022/07/27 06:26:57;;;;;;;1.75;0.85;;;16.10;99.90;;;;;;5104322;28;20032;-33
2022/07/27 06:29:22;;;;;;;1.70;0.70;;;16.10;99.90;;;;;;5105457;28;20073;-34
2022/07/27 06:31:48;;;;;;;2.20;0.80;;;16.20;99.90;;;;;;5104895;28;20027;-34
2022/07/27 06:34:14;;;;;;;1.38;0.73;;;16.30;99.90;;;;;;5104617;28;20036;-36
2022/07/27 06:36:41;;;;;;;1.92;0.88;;;16.30;99.90;;;;;;5104689;28;20470;-36
2022/07/27 06:39:07;;;;;;;0.52;0.43;;;16.40;99.90;;;;;;5106398;28;20020;-35
2022/07/27 06:41:33;;;;;;;1.75;0.80;;;16.40;99.90;;;;;;5108310;28;20023;-35
2022/07/27 06:43:59;;;;;;;1.45;0.63;;;16.50;99.90;;;;;;5108850;28;20450;-36
2022/07/27 06:46:25;;;;;;;0.77;0.50;;;16.60;99.90;;;;;;5107379;28;20071;-34
2022/07/27 06:48:51;;;;;;;1.65;0.73;;;16.70;99.90;;;;;;5108636;28;20055;-34
2022/07/27 06:51:17;;;;;;;1.50;0.80;;;16.80;99.90;;;;;;5108238;28;20027;-33
2022/07/27 06:53:43;;;;;;;0.80;0.80;;;16.90;99.90;;;;;;5107447;28;20112;-34
2022/07/27 06:56:09;;;;;;;0.73;0.60;;;17.00;99.90;;;;;;5108870;28;20047;-35
2022/07/27 06:58:38;;;;;;;2.10;0.55;;;17.20;99.90;;;;;;5107979;28;20046;-35
2022/07/27 07:01:04;;;;;;;1.17;0.50;;;17.30;99.90;;;;;;5107813;28;20127;-34
2022/07/27 07:03:29;;;;;;;1.10;0.60;;;17.40;99.90;;;;;;5107607;28;20558;-34
2022/07/27 07:05:55;;;;;;;0.50;0.50;;;17.50;99.90;;;;;;5107988;28;20054;-34
2022/07/27 07:08:21;;;;;;;1.40;0.70;;;17.60;99.90;;;;;;5107408;28;20077;-35
2022/07/27 07:10:48;;;;;;;2.72;0.60;;;17.60;99.90;;;;;;5108038;28;20122;-34
2022/07/27 07:13:14;;;;;;;1.33;0.50;;;17.70;99.90;;;;;;5107407;28;20035;-35
2022/07/27 07:15:42;;;;;;;1.83;0.70;;;17.70;99.90;;;;;;5107755;28;20034;-35
2022/07/27 07:18:09;;;;;;;1.35;0.60;;;17.70;99.90;;;;;;5108045;28;20506;-35
2022/07/27 07:20:36;;;;;;;0.95;0.60;;;17.60;99.90;;;;;;5107408;28;20046;-33
2022/07/27 07:23:02;;;;;;;4.82;0.70;;;17.70;99.90;;;;;;5107325;28;20050;-34
2022/07/27 07:25:28;;;;;;;1.40;0.90;;;17.70;99.90;;;;;;5106785;28;20040;-35
2022/07/27 07:27:54;;;;;;;1.08;0.82;;;17.80;99.90;;;;;;5107600;28;20032;-33
2022/07/27 07:30:21;;;;;;;1.70;0.60;;;17.80;99.90;;;;;;5107171;28;20019;-35
2022/07/27 07:32:46;;;;;;;0.65;0.50;;;17.90;99.90;;;;;;5107787;28;20470;-34
2022/07/27 07:35:12;;;;;;;3.58;1.00;;;18.00;99.90;;;;;;5107530;28;20035;-35
2022/07/27 07:37:38;;;;;;;1.05;0.70;;;17.90;99.90;;;;;;5106923;28;20513;-35
2022/07/27 07:40:05;;;;;;;0.90;0.60;;;17.90;99.90;;;;;;5107101;28;20012;-36
2022/07/27 07:42:31;;;;;;;1.73;0.82;;;17.90;99.90;;;;;;5106687;28;20031;-35
2022/07/27 07:44:56;;;;;;;0.60;0.50;;;17.80;99.90;;;;;;5106255;28;20791;-35
2022/07/27 07:47:23;;;;;;;1.15;0.70;;;17.80;99.90;;;;;;5107451;28;20043;-33
2022/07/27 07:49:49;;;;;;;1.60;0.70;;;17.70;99.90;;;;;;5105877;28;20050;-35
2022/07/27 07:52:15;;;;;;;1.33;0.50;;;17.60;99.90;;;;;;5106789;28;20076;-35
2022/07/27 07:54:40;;;;;;;1.00;0.75;;;17.50;99.90;;;;;;5107010;28;20023;-34
2022/07/27 07:57:06;;;;;;;1.00;0.63;;;17.50;99.90;;;;;;5107053;28;20150;-35
2022/07/27 07:59:31;;;;;;;0.88;0.50;;;17.50;99.70;;;;;;5106835;28;20158;-35
2022/07/27 08:02:02;;;;;;;0.80;0.60;;;17.40;99.90;;;;;;5107142;28;20149;-42
2022/07/27 08:04:27;;;;;;;3.70;0.80;;;17.50;99.90;;;;;;5106382;28;20112;-36
2022/07/27 08:06:53;;;;;;;3.22;0.80;;;17.60;99.90;;;;;;5107239;28;20504;-35
2022/07/27 08:09:20;;;;;;;2.08;0.90;;;17.70;99.60;;;;;;5106758;28;20167;-35
2022/07/27 08:11:46;;;;;;;1.42;0.57;;;17.80;99.50;;;;;;5106711;28;20027;-36
2022/07/27 08:14:11;;;;;;;3.55;0.85;;;17.90;99.50;;;;;;5106696;28;20019;-36
2022/07/27 08:16:37;;;;;;;1.42;0.80;;;18.10;99.30;;;;;;5106719;28;20210;-34
2022/07/27 08:19:02;;;;;;;2.20;0.80;;;18.10;99.20;;;;;;5106303;28;20096;-34
2022/07/27 08:21:28;;;;;;;1.33;0.60;;;18.10;99.10;;;;;;5106695;28;20031;-35
2022/07/27 08:23:53;;;;;;;4.47;0.80;;;18.10;99.00;;;;;;5107005;28;20031;-34
2022/07/27 08:26:19;;;;;;;2.60;0.73;;;18.10;98.90;;;;;;5106078;28;20067;-35
2022/07/27 08:28:44;;;;;;;2.70;0.60;;;18.10;98.70;;;;;;5106902;28;20512;-35
2022/07/27 08:31:10;;;;;;;3.60;0.80;;;18.20;98.70;;;;;;5106749;28;20020;-34
2022/07/27 08:33:36;;;;;;;0.77;0.57;;;18.30;98.60;;;;;;5106562;28;20039;-35
2022/07/27 08:36:01;;;;;;;1.20;0.70;;;18.30;98.40;;;;;;5106451;28;20027;-34
2022/07/27 08:38:27;;;;;;;1.50;0.90;;;18.40;98.20;;;;;;5104989;28;20028;-34
2022/07/27 08:40:54;;;;;;;1.60;0.63;;;18.50;98.00;;;;;;5106619;28;20556;-35
2022/07/27 08:43:20;;;;;;;2.42;0.88;;;18.60;97.80;;;;;;5106068;28;20043;-34
2022/07/27 08:45:53;;;;;;;1.00;0.60;;;18.80;97.70;;;;;;5105382;28;20027;-35
2022/07/27 08:48:18;;;;;;;1.55;0.57;;;18.80;97.60;;;;;;5106161;28;20501;-34
2022/07/27 08:50:47;;;;;;;0.75;0.57;;;18.90;97.40;;;;;;5105293;28;20538;-34
2022/07/27 08:53:15;;;;;;;2.00;0.60;;;18.90;96.90;;;;;;5105277;28;20031;-35
2022/07/27 08:55:43;;;;;;;1.73;0.50;;;18.80;97.00;;;;;;5106020;28;20031;-35
2022/07/27 08:58:11;;;;;;;1.58;0.65;;;18.60;96.40;;;;;;5106239;28;20637;-34
2022/07/27 09:00:47;;;;;;;1.30;0.80;;;18.50;96.60;;;;;;5104403;28;20030;-35
2022/07/27 09:03:14;;;;;;;2.05;0.88;;;18.40;96.80;;;;;;5094199;28;20019;-35
2022/07/27 09:05:42;;;;;;;2.00;0.60;;;18.30;96.80;;;;;;5106147;28;20019;-34
2022/07/27 09:08:29;;;;;;;1.80;0.88;;;18.20;96.90;;;;;;5105378;28;20035;-33
2022/07/27 09:10:58;;;;;;;4.93;0.85;;;18.20;97.00;;;;;;5106081;28;20474;-34
2022/07/27 09:13:32;;;;;;;1.77;0.65;;;18.20;97.00;;;;;;5105416;28;20019;-34
2022/07/27 09:16:02;;;;;;;0.82;0.77;;;18.30;96.90;;;;;;5105159;28;20016;-35
2022/07/27 09:18:29;;;;;;;3.05;0.82;;;18.50;96.80;;;;;;5105238;28;20194;-34
2022/07/27 09:21:17;;;;;;;0.82;0.60;;;18.60;96.60;;;;;;5105419;28;20027;-33
2022/07/27 09:23:49;;;;;;;1.67;0.70;;;18.90;96.40;;;;;;5104701;28;20023;-34
2022/07/27 09:26:18;;;;;;;1.67;0.57;;;19.00;96.10;;;;;;5104727;28;20140;-34
2022/07/27 09:28:44;;;;;;;1.35;0.70;;;19.20;95.80;;;;;;5104702;28;20023;-34
2022/07/27 09:31:12;;;;;;;2.72;0.93;;;19.30;95.10;;;;;;5105509;28;20409;-33
2022/07/27 09:33:55;;;;;;;2.00;0.60;;;19.30;94.30;;;;;;5104674;28;20035;-35
2022/07/27 09:36:22;;;;;;;3.22;0.70;;;19.40;94.30;;;;;;5104513;28;20123;-34
2022/07/27 09:39:05;;;;;;;1.52;0.80;;;19.40;94.20;;;;;;5104833;28;20022;-34
2022/07/27 09:41:48;;;;;;;1.00;0.50;;;19.50;94.10;;;;;;5104655;28;20034;-34
2022/07/27 09:44:14;;;;;;;0.77;0.60;;;19.50;93.90;;;;;;5102597;28;20426;-34
2022/07/27 09:46:42;;;;;;;1.60;0.70;;;19.50;93.70;;;;;;5104797;28;20036;-35
2022/07/27 09:49:30;;;;;;;0.90;0.60;;;19.50;93.80;;;;;;5103362;28;20020;-35
2022/07/27 09:51:56;;;;;;;0.85;0.68;;;19.50;93.90;;;;;;5104750;28;20023;-36
2022/07/27 09:54:24;;;;;;;2.65;0.80;;;19.50;93.90;;;;;;5104434;28;20032;-35
2022/07/27 09:57:00;;;;;;;1.70;0.85;;;19.60;93.90;;;;;;5104829;28;20062;-34
2022/07/27 09:59:30;;;;;;;2.03;0.70;;;19.50;92.90;;;;;;5103759;28;20031;-34
2022/07/27 10:01:56;;;;;;;1.63;0.50;;;19.50;93.50;;;;;;5105642;28;20223;-34
2022/07/27 10:04:23;;;;;;;1.15;0.60;;;19.50;93.80;;;;;;5103902;28;20425;-37
2022/07/27 10:06:49;;;;;;;2.42;0.85;;;19.50;93.70;;;;;;5105045;28;20028;-34
2022/07/27 10:09:16;;;;;;;1.98;0.68;;;19.60;93.60;;;;;;5104456;28;20087;-34
2022/07/27 10:11:42;;;;;;;1.08;0.63;;;19.70;93.50;;;;;;5104268;28;20072;-34
2022/07/27 10:14:07;;;;;;;1.80;0.70;;;19.70;93.30;;;;;;5106811;28;20463;-33
2022/07/27 10:16:35;;;;;;;0.93;0.60;;;19.80;92.70;;;;;;5108449;28;20028;-35
2022/07/27 10:19:12;;;;;;;2.00;0.63;;;19.80;91.80;;;;;;5108589;28;20107;-34
2022/07/27 10:21:42;;;;;;;2.15;0.63;;;19.80;91.00;;;;;;5109466;28;20042;-35
2022/07/27 10:24:12;;;;;;;1.08;0.60;;;19.80;90.70;;;;;;5107934;28;20023;-35
2022/07/27 10:26:40;;;;;;;3.88;0.68;;;19.70;90.10;;;;;;5108150;28;20051;-34
2022/07/27 10:29:15;;;;;;;0.82;0.50;;;19.60;90.20;;;;;;5108876;28;20030;-34
2022/07/27 10:31:58;;;;;;;0.90;0.38;;;19.60;90.40;;;;;;5108270;28;20020;-36
2022/07/27 10:34:39;;;;;;;1.40;0.70;;;19.50;90.40;;;;;;5108069;28;20084;-34
2022/07/27 10:37:13;;;;;;;0.80;0.50;;;19.40;90.20;;;;;;5108571;28;20124;-35
2022/07/27 10:39:42;;;;;;;1.30;0.50;;;19.30;90.10;;;;;;5107893;28;20534;-34
2022/07/27 10:42:28;;;;;;;1.17;0.60;;;19.20;90.40;;;;;;5108483;28;20563;-35
2022/07/27 10:44:58;;;;;;;1.40;0.55;;;19.10;90.40;;;;;;5108445;28;20023;-34
2022/07/27 10:47:35;;;;;;;1.08;0.50;;;19.10;90.50;;;;;;5107606;28;20040;-39
2022/07/27 10:50:16;;;;;;;1.75;0.70;;;19.00;90.50;;;;;;5108657;28;20024;-35
2022/07/27 10:52:41;;;;;;;1.60;0.68;;;19.00;90.70;;;;;;5107041;28;20034;-34
2022/07/27 10:55:07;;;;;;;1.42;0.70;;;19.10;90.80;;;;;;5108152;28;20012;-34
2022/07/27 10:57:35;;;;;;;1.02;0.60;;;19.20;90.80;;;;;;5108256;28;20024;-34
2022/07/27 11:00:07;;;;;;;0.90;0.50;;;19.30;90.70;;;;;;5107525;28;20020;-33
2022/07/27 11:02:39;;;;;;;0.77;0.63;;;19.40;90.50;;;;;;5107884;28;20034;-34
2022/07/27 11:05:06;;;;;;;1.23;0.70;;;19.60;90.30;;;;;;5108185;28;20027;-34
2022/07/27 11:07:31;;;;;;;3.00;0.88;;;19.70;90.20;;;;;;5106843;28;20027;-34
2022/07/27 11:10:00;;;;;;;1.92;0.50;;;19.80;90.00;;;;;;5107801;28;20031;-35
2022/07/27 11:12:28;;;;;;;1.17;0.70;;;20.00;89.90;;;;;;5107516;28;20023;-33
2022/07/27 11:14:56;;;;;;;0.50;0.47;;;20.20;89.80;;;;;;5107043;28;20060;-34
2022/07/27 11:17:26;;;;;;;2.70;1.45;;;20.40;89.50;;;;;;5107428;28;20050;-36
2022/07/27 11:19:54;;;;;;;1.40;0.40;;;20.70;88.70;;;;;;5108298;28;20063;-34
2022/07/27 11:22:29;;;;;;;0.55;0.50;;;20.80;88.30;;;;;;5107046;28;20042;-34
2022/07/27 11:24:55;;;;;;;1.48;0.60;;;20.80;86.20;;;;;;5107423;28;20043;-34
2022/07/27 11:27:21;;;;;;;0.82;0.60;;;20.70;86.40;;;;;;5106399;28;20421;-34
2022/07/27 11:29:46;;;;;;;2.78;0.93;;;20.60;85.20;;;;;;5107494;28;20047;-34
2022/07/27 11:32:17;;;;;;;1.90;0.60;;;20.60;84.80;;;;;;5107793;28;20100;-35
2022/07/27 11:34:43;;;;;;;1.65;0.70;;;20.50;85.40;;;;;;5107305;28;20614;-34
2022/07/27 11:37:22;;;;;;;1.00;0.60;;;20.50;85.10;;;;;;5107387;28;20122;-34
2022/07/27 11:39:57;;;;;;;1.05;0.60;;;20.60;84.60;;;;;;5094911;28;20065;-34
2022/07/27 11:42:23;;;;;;;0.82;0.60;;;20.70;84.90;;;;;;5106652;28;20081;-35
2022/07/27 11:44:51;;;;;;;2.47;0.60;;;20.70;85.30;;;;;;5107802;28;20037;-34
2022/07/27 11:47:18;;;;;;;2.53;0.63;;;20.70;84.30;;;;;;5107317;28;20444;-35
2022/07/27 11:49:43;;;;;;;1.23;0.57;;;20.70;83.30;;;;;;5107005;28;20042;-35
2022/07/27 11:52:10;;;;;;;1.10;0.65;;;20.70;83.50;;;;;;5107556;28;20032;-35
2022/07/27 11:54:40;;;;;;;1.77;0.70;;;20.60;83.50;;;;;;5106834;28;20502;-34
2022/07/27 11:57:11;;;;;;;0.98;0.55;;;20.60;83.60;;;;;;5106624;28;20035;-34
2022/07/27 11:59:39;;;;;;;0.88;0.50;;;20.50;83.90;;;;;;5107004;28;20023;-35
2022/07/27 12:02:13;;;;;;;1.85;0.65;;;20.50;84.80;;;;;;5107181;28;20482;-34
2022/07/27 12:04:40;;;;;;;1.50;0.40;;;20.50;83.90;;;;;;5106188;28;20020;-35
2022/07/27 12:07:18;;;;;;;1.55;0.60;;;20.50;84.00;;;;;;5106969;28;20062;-35
2022/07/27 12:09:47;;;;;;;0.50;0.50;;;20.50;83.80;;;;;;5106396;28;20097;-34
2022/07/27 12:12:15;;;;;;;1.27;0.55;;;20.60;83.80;;;;;;5107233;28;20540;-35
2022/07/27 12:14:44;;;;;;;1.40;0.60;;;20.80;83.70;;;;;;5106737;28;20478;-35
2022/07/27 12:17:29;;;;;;;1.48;0.50;;;21.00;83.40;;;;;;5106223;28;20052;-36
2022/07/27 12:20:04;;;;;;;0.90;0.50;;;21.20;82.90;;;;;;5097379;28;20561;-35
2022/07/27 12:22:38;;;;;;;1.38;0.52;;;21.40;82.10;;;;;;5105920;28;20030;-37
2022/07/27 12:25:17;;;;;;;2.30;0.70;;;21.50;81.90;;;;;;5106188;28;20055;-35
2022/07/27 12:27:55;;;;;;;0.63;0.60;;;21.60;81.20;;;;;;5106122;28;20140;-35
2022/07/27 12:30:33;;;;;;;0.77;0.55;;;21.50;80.60;;;;;;5106447;28;20019;-34
2022/07/27 12:33:00;;;;;;;1.23;0.60;;;21.50;81.10;;;;;;5106825;28;20027;-35
2022/07/27 12:35:28;;;;;;;2.38;0.80;;;21.40;79.80;;;;;;5105777;28;20028;-36
2022/07/27 12:38:03;;;;;;;2.13;0.70;;;21.30;80.60;;;;;;5105592;28;20027;-34
2022/07/27 12:40:30;;;;;;;1.02;0.50;;;21.30;81.10;;;;;;5098632;28;20030;-34
2022/07/27 12:43:01;;;;;;;1.80;0.70;;;21.30;79.20;;;;;;5105944;28;20020;-35
2022/07/27 12:45:35;;;;;;;1.20;0.80;;;21.20;79.90;;;;;;5104676;28;20020;-35
2022/07/27 12:48:12;;;;;;;1.50;0.47;;;21.30;80.40;;;;;;5106217;28;20031;-35
2022/07/27 12:50:39;;;;;;;0.60;0.50;;;21.30;79.80;;;;;;5105717;28;20030;-34
2022/07/27 12:53:06;;;;;;;1.48;0.70;;;21.30;80.00;;;;;;5105713;28;20077;-35
2022/07/27 12:55:31;;;;;;;1.90;0.60;;;21.50;79.70;;;;;;5105665;28;20030;-34